createdAt,value
2022-10-23T00:00:10.660Z,100028.94
2022-10-23T00:01:44.481Z,100037.53
2022-10-23T00:03:16.485Z,100042.72
2022-10-23T00:04:52.130Z,100046.91
2022-10-23T00:06:24.865Z,100043.53
2022-10-23T00:07:59.151Z,100045.22
2022-10-23T00:09:31.317Z,100044.38
2022-10-23T00:11:11.600Z,100047.72
2022-10-23T00:12:43.958Z,100046.88
2022-10-23T00:14:21.721Z,100044.28
2022-10-23T00:15:53.713Z,100048.63
2022-10-23T00:17:25.645Z,100047.78
2022-10-23T00:18:57.801Z,100043.50
2022-10-23T00:20:29.945Z,100048.72
2022-10-23T00:22:01.961Z,100056.44
2022-10-23T00:23:34.283Z,100054.72
2022-10-23T00:25:07.972Z,100060.75
2022-10-23T00:26:41.010Z,100055.59
2022-10-23T00:28:19.229Z,100054.72
2022-10-23T00:29:51.245Z,100064.25
2022-10-23T00:31:25.423Z,100061.66
2022-10-23T00:32:57.455Z,100060.81
2022-10-23T00:34:29.516Z,100059.97
2022-10-23T00:36:01.487Z,100066.00
2022-10-23T00:37:33.668Z,100067.69
2022-10-23T00:39:06.343Z,100065.13
2022-10-23T00:40:39.358Z,100059.94
2022-10-23T00:42:15.964Z,100059.91
2022-10-23T00:43:58.787Z,100063.34
2022-10-23T00:45:33.719Z,100070.34
2022-10-23T00:47:05.790Z,100072.94
2022-10-23T00:48:37.825Z,100073.88
2022-10-23T00:50:09.920Z,100071.28
2022-10-23T00:51:45.600Z,100072.94
2022-10-23T00:53:18.494Z,100076.38
2022-10-23T00:54:50.509Z,100084.13
2022-10-23T00:56:22.497Z,100074.63
2022-10-23T00:57:55.632Z,100075.47
2022-10-23T00:59:28.111Z,100084.91
2022-10-23T01:01:00.213Z,100080.56
2022-10-23T01:02:32.231Z,100090.00
2022-10-23T01:04:06.459Z,100085.66
2022-10-23T01:07:45.703Z,100091.66
2022-10-23T01:09:31.960Z,100097.66
2022-10-23T01:11:15.743Z,100094.19
2022-10-23T01:13:43.099Z,100105.44
2022-10-23T01:15:26.478Z,100105.44
2022-10-23T01:17:09.242Z,100113.16
2022-10-23T01:18:49.796Z,100108.88
2022-10-23T01:20:33.608Z,100108.03
2022-10-23T01:22:17.633Z,100108.94
2022-10-23T01:23:58.353Z,100120.97
2022-10-23T01:25:54.951Z,100127.00
2022-10-23T01:27:32.201Z,100128.69
2022-10-23T01:29:04.358Z,100136.47
2022-10-23T01:32:18.933Z,100151.00
2022-10-23T01:34:06.533Z,100145.78
2022-10-23T01:35:50.017Z,100142.28
2022-10-23T01:37:30.947Z,100143.13
2022-10-23T01:39:07.623Z,100153.47
2022-10-23T01:40:58.428Z,100162.91
2022-10-23T01:42:35.237Z,100162.91
2022-10-23T01:44:17.273Z,100179.31
2022-10-23T01:45:56.843Z,100168.09
2022-10-23T01:47:30.561Z,100171.59
2022-10-23T01:49:03.663Z,100178.47
2022-10-23T01:50:37.094Z,100173.28
2022-10-23T01:52:09.563Z,100191.34
2022-10-23T01:53:44.205Z,100207.88
2022-10-23T01:55:17.040Z,100198.38
2022-10-23T01:56:50.595Z,100209.56
2022-10-23T02:00:01.110Z,100216.41
2022-10-23T02:01:34.432Z,100218.09
2022-10-23T02:03:06.384Z,100231.88
2022-10-23T02:05:10.609Z,100225.78
2022-10-23T02:06:42.660Z,100234.44
2022-10-23T02:08:14.838Z,100241.34
2022-10-23T02:09:46.848Z,100249.97
2022-10-23T02:11:21.441Z,100255.16
2022-10-23T02:13:13.030Z,100248.22
2022-10-23T02:15:12.646Z,100240.44
2022-10-23T02:16:55.605Z,100246.38
2022-10-23T02:18:48.449Z,100248.06
2022-10-23T02:20:22.759Z,100262.75
2022-10-23T02:22:00.551Z,100261.03
2022-10-23T02:23:33.542Z,100263.53
2022-10-23T02:25:33.376Z,100260.84
2022-10-23T02:27:15.307Z,100264.31
2022-10-23T02:28:54.679Z,100268.63
2022-10-23T02:30:26.759Z,100272.91
2022-10-23T02:31:58.894Z,100271.16
2022-10-23T02:33:31.378Z,100272.00
2022-10-23T02:35:03.984Z,100279.75
2022-10-23T02:36:38.745Z,100278.00
2022-10-23T02:38:30.436Z,100282.25
2022-10-23T02:40:05.263Z,100274.47
2022-10-23T02:41:55.806Z,100276.09
2022-10-23T02:43:36.055Z,100282.09
2022-10-23T02:45:28.911Z,100281.19
2022-10-23T02:47:00.933Z,100281.16
2022-10-23T02:48:43.747Z,100282.78
2022-10-23T02:50:28.520Z,100282.75
2022-10-23T02:52:29.738Z,100274.13
2022-10-23T02:54:37.514Z,100293.09
2022-10-23T02:56:15.130Z,100293.09
2022-10-23T02:58:09.194Z,100293.03
2022-10-23T02:59:59.726Z,100303.47
2022-10-23T03:03:58.549Z,100300.81
2022-10-23T03:05:36.198Z,100302.50
2022-10-23T03:07:12.334Z,100305.09
2022-10-23T03:08:48.948Z,100312.03
2022-10-23T03:10:21.307Z,100308.59
2022-10-23T03:11:53.354Z,100308.59
2022-10-23T03:13:25.413Z,100313.78
2022-10-23T03:14:57.448Z,100313.81
2022-10-23T03:16:29.435Z,100320.72
2022-10-23T03:18:01.515Z,100319.88
2022-10-23T03:19:33.531Z,100326.78
2022-10-23T03:21:05.583Z,100320.75
2022-10-23T03:22:38.095Z,100325.91
2022-10-23T03:24:10.104Z,100321.59
2022-10-23T03:25:42.219Z,100319.03
2022-10-23T03:27:14.259Z,100321.56
2022-10-23T03:28:46.322Z,100331.94
2022-10-23T03:30:18.397Z,100325.00
2022-10-23T03:31:50.488Z,100332.75
2022-10-23T03:33:23.011Z,100337.94
2022-10-23T03:34:54.994Z,100325.91
2022-10-23T03:36:26.921Z,100331.03
2022-10-23T03:37:58.988Z,100336.22
2022-10-23T03:39:30.977Z,100333.63
2022-10-23T03:41:05.824Z,100337.13
2022-10-23T03:42:37.854Z,100346.66
2022-10-23T03:44:09.878Z,100347.50
2022-10-23T03:45:41.915Z,100357.03
2022-10-23T03:47:16.383Z,100352.75
2022-10-23T03:48:48.394Z,100362.31
2022-10-23T03:50:20.867Z,100361.50
2022-10-23T03:51:53.295Z,100365.00
2022-10-23T03:53:25.336Z,100364.13
2022-10-23T03:54:57.365Z,100369.34
2022-10-23T03:56:29.395Z,100360.72
2022-10-23T03:58:01.528Z,100365.06
2022-10-23T03:59:33.499Z,100356.44
2022-10-23T04:01:05.726Z,100360.78
2022-10-23T04:02:37.993Z,100370.31
2022-10-23T04:04:10.092Z,100372.09
2022-10-23T04:05:42.680Z,100375.56
2022-10-23T04:07:14.609Z,100379.03
2022-10-23T04:08:46.713Z,100388.56
2022-10-23T04:10:18.828Z,100382.53
2022-10-23T04:11:50.821Z,100379.88
2022-10-23T04:13:22.925Z,100382.53
2022-10-23T04:14:55.016Z,100369.56
2022-10-23T04:16:27.194Z,100371.25
2022-10-23T04:17:59.195Z,100374.75
2022-10-23T04:19:31.361Z,100362.63
2022-10-23T04:21:03.598Z,100377.28
2022-10-23T04:22:35.652Z,100384.22
2022-10-23T04:24:07.843Z,100372.09
2022-10-23T04:25:39.918Z,100382.53
2022-10-23T04:27:12.015Z,100374.78
2022-10-23T04:28:44.068Z,100368.81
2022-10-23T04:30:16.142Z,100369.66
2022-10-23T04:31:48.413Z,100375.75
2022-10-23T04:33:23.433Z,100373.16
2022-10-23T04:34:55.631Z,100374.00
2022-10-23T04:36:27.712Z,100379.19
2022-10-23T04:37:59.723Z,100376.59
2022-10-23T04:39:31.734Z,100376.59
2022-10-23T04:41:03.769Z,100375.75
2022-10-23T04:42:35.772Z,100377.50
2022-10-23T04:44:08.094Z,100369.72
2022-10-23T04:45:40.261Z,100370.63
2022-10-23T04:47:12.441Z,100383.59
2022-10-23T04:48:44.589Z,100385.28
2022-10-23T04:50:16.915Z,100386.19
2022-10-23T04:51:48.964Z,100390.53
2022-10-23T04:53:21.149Z,100388.78
2022-10-23T04:54:53.202Z,100387.94
2022-10-23T04:56:25.260Z,100380.16
2022-10-23T04:57:57.251Z,100389.63
2022-10-23T04:59:29.253Z,100387.06
2022-10-23T05:02:35.182Z,100388.72
2022-10-23T05:04:07.367Z,100396.44
2022-10-23T05:05:39.434Z,100408.53
2022-10-23T05:07:11.548Z,100406.78
2022-10-23T05:08:43.643Z,100399.84
2022-10-23T05:10:15.984Z,100414.50
2022-10-23T05:11:48.099Z,100416.25
2022-10-23T05:13:20.592Z,100414.44
2022-10-23T05:14:52.885Z,100429.06
2022-10-23T05:16:33.297Z,100417.75
2022-10-23T05:18:13.309Z,100430.69
2022-10-23T05:19:54.037Z,100424.63
2022-10-23T05:21:28.315Z,100421.13
2022-10-23T05:23:01.146Z,100428.91
2022-10-23T05:24:33.145Z,100428.91
2022-10-23T05:26:05.760Z,100430.53
2022-10-23T05:27:37.783Z,100436.56
2022-10-23T05:29:09.789Z,100428.75
2022-10-23T05:32:16.456Z,100420.13
2022-10-23T05:33:48.614Z,100436.41
2022-10-23T05:35:23.124Z,100442.34
2022-10-23T05:36:55.822Z,100446.63
2022-10-23T05:38:30.336Z,100445.69
2022-10-23T05:40:02.485Z,100449.19
2022-10-23T05:41:34.611Z,100461.25
2022-10-23T05:43:06.852Z,100468.13
2022-10-23T05:44:39.089Z,100473.25
2022-10-23T05:46:11.389Z,100461.09
2022-10-23T05:47:49.729Z,100463.59
2022-10-23T05:49:21.964Z,100471.31
2022-10-23T05:50:53.971Z,100466.03
2022-10-23T05:52:26.341Z,100454.72
2022-10-23T05:53:58.493Z,100453.75
2022-10-23T05:55:30.881Z,100454.44
2022-10-23T05:57:03.159Z,100457.63
2022-10-23T05:58:35.467Z,100476.50
2022-10-23T06:00:11.696Z,100475.41
2022-10-23T06:01:46.898Z,100480.59
2022-10-23T06:03:19.070Z,100483.16
2022-10-23T06:04:51.154Z,100491.72
2022-10-23T06:06:23.374Z,100486.41
2022-10-23T06:08:00.136Z,100485.38
2022-10-23T06:09:32.518Z,100489.66
2022-10-23T06:11:15.132Z,100486.91
2022-10-23T06:12:47.145Z,100482.44
2022-10-23T06:14:19.457Z,100488.38
2022-10-23T06:15:51.510Z,100491.69
2022-10-23T06:17:23.656Z,100501.94
2022-10-23T06:18:56.336Z,100501.56
2022-10-23T06:20:28.877Z,100507.28
2022-10-23T06:22:01.125Z,100501.75
2022-10-23T06:23:34.723Z,100504.84
2022-10-23T06:25:07.607Z,100501.03
2022-10-23T06:26:39.934Z,100506.72
2022-10-23T06:28:12.432Z,100499.34
2022-10-23T06:29:46.313Z,100496.19
2022-10-23T06:31:20.012Z,100510.47
2022-10-23T06:32:52.296Z,100508.94
2022-10-23T06:34:24.467Z,100516.16
2022-10-23T06:37:30.395Z,100527.28
2022-10-23T06:39:02.801Z,100519.09
2022-10-23T06:40:35.248Z,100522.09
2022-10-23T06:42:07.833Z,100525.16
2022-10-23T06:43:40.228Z,100532.53
2022-10-23T06:45:12.538Z,100527.72
2022-10-23T06:46:47.532Z,100523.91
2022-10-23T06:48:19.636Z,100533.16
2022-10-23T06:49:51.917Z,100531.09
2022-10-23T06:51:25.578Z,100536.88
2022-10-23T06:52:57.991Z,100549.63
2022-10-23T06:54:30.254Z,100545.91
2022-10-23T06:56:03.211Z,100539.53
2022-10-23T06:57:35.813Z,100548.03
2022-10-23T06:59:08.116Z,100541.69
2022-10-23T07:00:40.593Z,100544.22
2022-10-23T07:02:12.836Z,100545.69
2022-10-23T07:03:45.621Z,100540.22
2022-10-23T07:05:18.604Z,100543.44
2022-10-23T07:06:50.809Z,100552.84
2022-10-23T07:08:23.227Z,100556.03
2022-10-23T07:09:55.338Z,100551.41
2022-10-23T07:11:27.755Z,100551.28
2022-10-23T07:13:01.416Z,100554.78
2022-10-23T07:14:36.307Z,100567.56
2022-10-23T07:16:19.640Z,100563.69
2022-10-23T07:17:51.767Z,100562.72
2022-10-23T07:19:25.513Z,100563.34
2022-10-23T07:20:59.102Z,100563.19
2022-10-23T07:22:31.541Z,100563.91
2022-10-23T07:24:04.373Z,100559.16
2022-10-23T07:25:36.664Z,100560.88
2022-10-23T07:27:08.793Z,100552.03
2022-10-23T07:28:41.973Z,100563.25
2022-10-23T07:30:15.330Z,100573.53
2022-10-23T07:31:47.412Z,100562.72
2022-10-23T07:33:19.683Z,100562.91
2022-10-23T07:34:51.980Z,100557.63
2022-10-23T07:36:24.368Z,100554.94
2022-10-23T07:37:57.040Z,100559.84
2022-10-23T07:39:29.380Z,100551.03
2022-10-23T07:41:02.276Z,100551.75
2022-10-23T07:42:34.701Z,100542.09
2022-10-23T07:44:07.210Z,100540.19
2022-10-23T07:45:39.489Z,100537.53
2022-10-23T07:47:11.611Z,100540.78
2022-10-23T07:48:44.097Z,100538.13
2022-10-23T07:51:51.406Z,100534.78
2022-10-23T07:53:25.851Z,100547.38
2022-10-23T07:54:58.026Z,100545.50
2022-10-23T07:56:30.364Z,100533.94
2022-10-23T07:58:02.619Z,100545.97
2022-10-23T07:59:37.903Z,100556.97
2022-10-23T08:01:18.538Z,100553.16
2022-10-23T08:02:51.002Z,100551.44
2022-10-23T08:04:23.611Z,100545.97
2022-10-23T08:05:56.991Z,100550.16
2022-10-23T08:07:29.633Z,100555.81
2022-10-23T08:09:05.484Z,100549.72
2022-10-23T08:10:38.987Z,100553.97
2022-10-23T08:12:11.420Z,100547.72
2022-10-23T08:13:44.691Z,100546.72
2022-10-23T08:15:16.869Z,100546.38
2022-10-23T08:16:49.223Z,100541.97
2022-10-23T08:18:21.502Z,100551.28
2022-10-23T08:19:53.872Z,100550.06
2022-10-23T08:21:26.285Z,100567.63
2022-10-23T08:22:58.552Z,100556.97
2022-10-23T08:24:30.775Z,100555.84
2022-10-23T08:26:05.723Z,100557.25
2022-10-23T08:27:38.912Z,100557.97
2022-10-23T08:29:11.349Z,100561.38
2022-10-23T08:30:43.689Z,100557.69
2022-10-23T08:32:16.057Z,100565.34
2022-10-23T08:35:21.643Z,100551.31
2022-10-23T08:36:53.905Z,100551.25
2022-10-23T08:38:26.232Z,100548.38
2022-10-23T08:39:58.542Z,100545.44
2022-10-23T08:41:43.301Z,100552.75
2022-10-23T08:43:21.860Z,100547.97
2022-10-23T08:45:27.879Z,100540.69
2022-10-23T08:47:12.948Z,100552.63
2022-10-23T08:48:53.231Z,100560.13
2022-10-23T08:52:47.454Z,100555.25
2022-10-23T08:54:47.405Z,100548.13
2022-10-23T08:56:29.466Z,100546.97
2022-10-23T08:58:03.211Z,100563.84
2022-10-23T08:59:59.453Z,100559.19
2022-10-23T09:01:38.559Z,100550.53
2022-10-23T09:03:13.555Z,100564.38
2022-10-23T09:04:47.889Z,100566.09
2022-10-23T09:06:36.017Z,100553.53
2022-10-23T09:08:34.069Z,100550.88
2022-10-23T09:10:31.541Z,100553.41
2022-10-23T09:12:07.852Z,100544.72
2022-10-23T09:13:50.849Z,100540.25
2022-10-23T09:15:36.022Z,100553.34
2022-10-23T09:17:25.794Z,100554.03
2022-10-23T09:18:58.359Z,100545.50
2022-10-23T09:20:35.041Z,100548.00
2022-10-23T09:22:07.479Z,100540.03
2022-10-23T09:23:39.861Z,100540.63
2022-10-23T09:25:23.321Z,100547.97
2022-10-23T09:26:56.108Z,100532.84
2022-10-23T09:28:32.027Z,100529.97
2022-10-23T09:30:04.856Z,100530.91
2022-10-23T09:31:49.110Z,100516.31
2022-10-23T09:33:26.662Z,100511.47
2022-10-23T09:34:59.133Z,100522.13
2022-10-23T09:36:31.483Z,100517.50
2022-10-23T09:38:03.751Z,100521.84
2022-10-23T09:39:37.017Z,100521.44
2022-10-23T09:41:20.132Z,100523.75
2022-10-23T09:43:04.194Z,100514.06
2022-10-23T09:44:36.489Z,100514.75
2022-10-23T09:46:09.811Z,100513.53
2022-10-23T09:47:42.629Z,100513.38
2022-10-23T09:49:20.995Z,100506.84
2022-10-23T09:51:17.953Z,100504.97
2022-10-23T09:52:53.557Z,100495.28
2022-10-23T09:54:25.794Z,100484.91
2022-10-23T09:56:02.307Z,100477.78
2022-10-23T09:57:42.009Z,100486.38
2022-10-23T09:59:14.611Z,100481.84
2022-10-23T10:00:51.133Z,100490.19
2022-10-23T10:02:30.857Z,100489.56
2022-10-23T10:04:03.194Z,100495.50
2022-10-23T10:05:37.942Z,100496.03
2022-10-23T10:07:21.967Z,100502.84
2022-10-23T10:10:45.744Z,100483.91
2022-10-23T10:12:46.952Z,100481.59
2022-10-23T10:14:56.140Z,100476.72
2022-10-23T10:16:48.608Z,100477.38
2022-10-23T10:18:48.096Z,100477.19
2022-10-23T10:20:46.763Z,100467.06
2022-10-23T10:22:30.733Z,100477.25
2022-10-23T10:24:22.173Z,100478.78
2022-10-23T10:26:16.674Z,100467.38
2022-10-23T10:28:07.425Z,100474.06
2022-10-23T10:30:01.153Z,100474.13
2022-10-23T10:32:02.498Z,100467.44
2022-10-23T10:33:53.675Z,100477.81
2022-10-23T10:35:34.793Z,100477.66
2022-10-23T10:37:32.944Z,100467.38
2022-10-23T10:39:12.257Z,100470.59
2022-10-23T10:41:05.918Z,100463.88
2022-10-23T10:42:49.368Z,100469.16
2022-10-23T10:46:29.060Z,100471.06
2022-10-23T10:48:08.217Z,100473.59
2022-10-23T10:49:58.008Z,100453.03
2022-10-23T10:51:39.657Z,100457.38
2022-10-23T10:53:45.743Z,100456.91
2022-10-23T10:55:54.423Z,100459.84
2022-10-23T10:57:33.563Z,100466.81
2022-10-23T10:59:13.191Z,100452.56
2022-10-23T11:00:46.088Z,100474.56
2022-10-23T11:02:29.463Z,100459.72
2022-10-23T11:04:19.498Z,100455.19
2022-10-23T11:05:52.307Z,100444.09
2022-10-23T11:07:27.956Z,100454.81
2022-10-23T11:09:19.714Z,100443.97
2022-10-23T11:10:57.592Z,100435.03
2022-10-23T11:12:33.096Z,100427.34
2022-10-23T11:14:05.639Z,100427.19
2022-10-23T11:15:43.715Z,100422.28
2022-10-23T11:17:40.159Z,100412.91
2022-10-23T11:19:34.735Z,100410.84
2022-10-23T11:21:27.619Z,100402.50
2022-10-23T11:23:36.911Z,100407.91
2022-10-23T11:25:32.626Z,100402.50
2022-10-23T11:27:27.562Z,100401.34
2022-10-23T11:29:14.187Z,100406.84
2022-10-23T11:31:11.539Z,100411.81
2022-10-23T11:33:02.291Z,100413.28
2022-10-23T11:34:46.951Z,100408.34
2022-10-23T11:36:21.783Z,100419.84
2022-10-23T11:38:28.580Z,100418.16
2022-10-23T11:40:22.584Z,100413.38
2022-10-23T11:42:19.131Z,100398.69
2022-10-23T11:43:57.484Z,100403.50
2022-10-23T11:45:47.934Z,100397.06
2022-10-23T11:47:39.339Z,100396.00
2022-10-23T11:49:25.160Z,100399.94
2022-10-23T11:50:59.161Z,100389.22
2022-10-23T11:52:50.656Z,100405.44
2022-10-23T11:54:28.778Z,100396.44
2022-10-23T11:56:27.398Z,100397.31
2022-10-23T11:58:05.907Z,100384.44
2022-10-23T11:59:50.267Z,100386.22
2022-10-23T12:01:47.315Z,100382.94
2022-10-23T12:03:24.606Z,100383.03
2022-10-23T12:04:57.113Z,100379.16
2022-10-23T12:06:52.595Z,100379.16
2022-10-23T12:08:28.163Z,100372.56
2022-10-23T12:10:03.239Z,100378.75
2022-10-23T12:11:48.184Z,100374.06
2022-10-23T12:13:38.383Z,100368.03
2022-10-23T12:15:16.440Z,100375.69
2022-10-23T12:16:48.771Z,100370.19
2022-10-23T12:18:22.373Z,100373.91
2022-10-23T12:19:55.383Z,100367.06
2022-10-23T12:21:28.819Z,100377.25
2022-10-23T12:23:00.930Z,100371.53
2022-10-23T12:24:40.088Z,100382.72
2022-10-23T12:26:18.536Z,100381.38
2022-10-23T12:27:59.534Z,100373.22
2022-10-23T12:29:51.821Z,100373.09
2022-10-23T12:31:23.940Z,100374.78
2022-10-23T12:32:56.134Z,100384.97
2022-10-23T12:35:03.647Z,100379.88
2022-10-23T12:36:35.655Z,100375.75
2022-10-23T12:38:15.716Z,100373.19
2022-10-23T12:39:52.454Z,100378.63
2022-10-23T12:41:33.126Z,100378.94
2022-10-23T12:43:17.895Z,100378.22
2022-10-23T12:45:13.173Z,100369.88
2022-10-23T12:46:48.536Z,100367.97
2022-10-23T12:48:21.911Z,100374.09
2022-10-23T12:49:53.989Z,100364.16
2022-10-23T12:51:31.188Z,100367.38
2022-10-23T12:53:04.928Z,100368.00
2022-10-23T12:54:39.217Z,100369.63
2022-10-23T12:56:11.216Z,100361.25
2022-10-23T12:59:18.070Z,100375.19
2022-10-23T13:00:54.194Z,100366.69
2022-10-23T13:02:30.736Z,100368.22
2022-10-23T13:04:12.224Z,100368.75
2022-10-23T13:05:44.430Z,100365.25
2022-10-23T13:07:16.509Z,100368.66
2022-10-23T13:08:48.684Z,100364.53
2022-10-23T13:10:21.636Z,100372.88
2022-10-23T13:11:53.770Z,100373.28
2022-10-23T13:13:25.833Z,100375.00
2022-10-23T13:15:03.822Z,100385.31
2022-10-23T13:16:36.012Z,100375.41
2022-10-23T13:18:08.776Z,100386.66
2022-10-23T13:19:40.771Z,100378.41
2022-10-23T13:21:23.290Z,100377.22
2022-10-23T13:23:00.761Z,100375.72
2022-10-23T13:24:33.472Z,100372.94
2022-10-23T13:26:06.797Z,100366.69
2022-10-23T13:27:39.032Z,100368.69
2022-10-23T13:31:02.407Z,100368.56
2022-10-23T13:32:34.547Z,100367.59
2022-10-23T13:34:07.802Z,100359.88
2022-10-23T13:35:39.806Z,100372.16
2022-10-23T13:37:21.065Z,100366.66
2022-10-23T13:39:04.987Z,100360.91
2022-10-23T13:40:37.164Z,100369.16
2022-10-23T13:42:35.680Z,100359.00
2022-10-23T13:44:08.099Z,100367.81
2022-10-23T13:45:41.064Z,100359.88
2022-10-23T13:47:13.470Z,100361.72
2022-10-23T13:48:45.914Z,100355.59
2022-10-23T13:50:18.211Z,100363.75
2022-10-23T13:51:51.547Z,100358.34
2022-10-23T13:53:23.549Z,100373.16
2022-10-23T13:54:55.587Z,100366.81
2022-10-23T13:56:31.737Z,100367.97
2022-10-23T13:58:04.023Z,100364.59
2022-10-23T13:59:36.108Z,100367.13
2022-10-23T14:01:12.620Z,100367.00
2022-10-23T14:02:45.486Z,100372.50
2022-10-23T14:04:18.085Z,100364.63
2022-10-23T14:05:51.023Z,100372.03
2022-10-23T14:07:23.056Z,100383.13
2022-10-23T14:08:55.173Z,100377.75
2022-10-23T14:10:27.859Z,100379.44
2022-10-23T14:12:00.032Z,100377.09
2022-10-23T14:13:32.285Z,100377.09
2022-10-23T14:15:04.312Z,100377.09
2022-10-23T14:16:36.437Z,100374.56
2022-10-23T14:19:48.488Z,100370.53
2022-10-23T14:21:21.115Z,100367.28
2022-10-23T14:22:53.119Z,100375.31
2022-10-23T14:24:25.334Z,100374.69
2022-10-23T14:26:04.087Z,100365.16
2022-10-23T14:27:36.304Z,100366.47
2022-10-23T14:29:10.293Z,100363.00
2022-10-23T14:30:48.317Z,100360.34
2022-10-23T14:32:20.237Z,100355.38
2022-10-23T14:33:54.500Z,100361.78
2022-10-23T14:53:14.112Z,100373.00
2022-10-23T14:54:46.162Z,100374.22
2022-10-23T14:56:18.451Z,100371.94
2022-10-23T14:57:54.958Z,100370.63
2022-10-23T14:59:27.188Z,100375.50
2022-10-23T15:00:59.862Z,100376.78
2022-10-23T15:02:32.188Z,100372.75
2022-10-23T15:04:04.453Z,100367.91
2022-10-23T15:05:36.572Z,100364.88
2022-10-23T15:07:08.763Z,100372.22
2022-10-23T15:08:41.045Z,100366.50
2022-10-23T15:10:13.430Z,100367.69
2022-10-23T15:11:45.708Z,100368.22
2022-10-23T15:13:17.775Z,100369.56
2022-10-23T15:14:49.766Z,100361.25
2022-10-23T15:16:22.454Z,100369.88
2022-10-23T15:17:54.425Z,100368.81
2022-10-23T15:19:26.566Z,100367.88
2022-10-23T15:20:58.651Z,100373.84
2022-10-23T15:22:30.813Z,100371.09
2022-10-23T15:24:03.322Z,100368.38
2022-10-23T15:25:40.921Z,100376.81
2022-10-23T15:27:12.862Z,100373.13
2022-10-23T15:28:44.720Z,100380.63
2022-10-23T15:30:17.004Z,100376.00
2022-10-23T15:31:56.185Z,100372.13
2022-10-23T15:33:28.317Z,100373.50
2022-10-23T15:35:00.534Z,100370.47
2022-10-23T15:36:32.805Z,100372.00
2022-10-23T15:38:05.025Z,100373.28
2022-10-23T15:39:38.175Z,100374.66
2022-10-23T15:41:14.671Z,100374.25
2022-10-23T15:42:47.882Z,100378.25
2022-10-23T15:44:20.492Z,100379.59
2022-10-23T15:45:52.467Z,100383.38
2022-10-23T15:47:24.452Z,100382.13
2022-10-23T15:48:56.408Z,100394.09
2022-10-23T15:50:28.637Z,100395.47
2022-10-23T15:52:00.766Z,100400.38
2022-10-23T15:53:33.484Z,100399.06
2022-10-23T15:55:06.001Z,100399.47
2022-10-23T15:56:38.073Z,100395.53
2022-10-23T15:58:10.097Z,100404.41
2022-10-23T15:59:42.324Z,100398.69
2022-10-23T16:01:14.485Z,100399.16
2022-10-23T16:02:46.733Z,100398.09
2022-10-23T16:04:19.021Z,100400.47
2022-10-23T16:05:51.089Z,100402.69
2022-10-23T16:07:23.409Z,100395.19
2022-10-23T16:08:55.499Z,100402.56
2022-10-23T16:10:27.666Z,100402.84
2022-10-23T16:11:59.772Z,100417.53
2022-10-23T16:13:31.925Z,100413.69
2022-10-23T16:15:04.073Z,100421.00
2022-10-23T16:16:36.165Z,100417.13
2022-10-23T16:18:09.317Z,100419.28
2022-10-23T16:19:41.648Z,100422.22
2022-10-23T16:21:32.193Z,100421.53
2022-10-23T16:23:04.291Z,100420.03
2022-10-23T16:24:36.279Z,100424.56
2022-10-23T16:26:08.294Z,100422.22
2022-10-23T16:27:40.420Z,100422.53
2022-10-23T16:29:12.557Z,100430.56
2022-10-23T16:30:44.535Z,100433.31
2022-10-23T16:32:19.457Z,100423.91
2022-10-23T16:33:51.821Z,100429.38
2022-10-23T16:35:23.866Z,100430.34
2022-10-23T16:36:55.736Z,100430.47
2022-10-23T16:38:27.878Z,100433.22
2022-10-23T16:40:01.326Z,100422.97
2022-10-23T16:41:33.337Z,100432.69
2022-10-23T16:43:05.360Z,100431.19
2022-10-23T16:44:37.474Z,100439.19
2022-10-23T16:46:13.788Z,100441.03
2022-10-23T16:47:45.911Z,100436.88
2022-10-23T16:49:20.903Z,100443.19
2022-10-23T16:50:53.106Z,100444.22
2022-10-23T16:52:25.565Z,100439.13
2022-10-23T16:53:57.940Z,100445.38
2022-10-23T16:57:03.939Z,100454.28
2022-10-23T16:58:36.277Z,100450.16
2022-10-23T17:00:08.491Z,100448.56
2022-10-23T17:01:40.670Z,100452.22
2022-10-23T17:03:12.791Z,100455.97
2022-10-23T17:04:44.973Z,100464.84
2022-10-23T17:06:18.461Z,100458.00
2022-10-23T17:07:50.671Z,100463.34
2022-10-23T17:09:24.022Z,100464.34
2022-10-23T17:11:08.483Z,100456.63
2022-10-23T17:12:40.528Z,100464.56
2022-10-23T17:14:14.113Z,100463.81
2022-10-23T17:15:46.115Z,100478.72
2022-10-23T17:17:18.200Z,100471.00
2022-10-23T17:18:50.580Z,100478.97
2022-10-23T17:20:22.697Z,100473.91
2022-10-23T17:21:55.471Z,100476.72
2022-10-23T17:23:27.978Z,100477.72
2022-10-23T17:26:36.600Z,100477.09
2022-10-23T17:28:08.819Z,100477.25
2022-10-23T17:29:40.820Z,100473.88
2022-10-23T17:31:13.180Z,100474.84
2022-10-23T17:32:45.676Z,100473.19
2022-10-23T17:34:19.802Z,100471.53
2022-10-23T17:35:52.949Z,100471.59
2022-10-23T17:37:24.959Z,100475.09
2022-10-23T17:38:56.938Z,100483.78
2022-10-23T17:40:34.475Z,100482.91
2022-10-23T17:42:06.656Z,100487.22
2022-10-23T17:43:38.778Z,100485.44
2022-10-23T17:45:11.110Z,100487.19
2022-10-23T17:46:43.067Z,100483.75
2022-10-23T17:48:15.098Z,100487.16
2022-10-23T17:49:47.001Z,100490.66
2022-10-23T17:51:22.754Z,100482.81
2022-10-23T17:52:54.933Z,100477.66
2022-10-23T17:54:27.769Z,100484.69
2022-10-23T17:56:01.452Z,100490.06
2022-10-23T17:57:33.289Z,100494.63
2022-10-23T17:59:07.088Z,100491.34
2022-10-23T18:00:41.987Z,100499.28
2022-10-23T18:02:14.087Z,100500.22
2022-10-23T18:03:46.209Z,100502.16
2022-10-23T18:05:18.384Z,100499.78
2022-10-23T18:06:53.065Z,100500.78
2022-10-23T18:08:25.176Z,100502.59
2022-10-23T18:09:57.140Z,100500.88
2022-10-23T18:11:33.823Z,100505.28
2022-10-23T18:13:05.927Z,100507.09
2022-10-23T18:14:38.211Z,100504.56
2022-10-23T18:16:11.825Z,100507.22
2022-10-23T18:17:44.002Z,100501.19
2022-10-23T18:19:18.519Z,100496.84
2022-10-23T18:20:50.513Z,100499.47
2022-10-23T18:22:22.595Z,100498.66
2022-10-23T18:23:55.085Z,100500.41
2022-10-23T18:25:27.320Z,100507.38
2022-10-23T18:26:59.340Z,100503.94
2022-10-23T18:28:32.854Z,100502.28
2022-10-23T18:30:05.249Z,100504.03
2022-10-23T18:31:40.665Z,100502.31
2022-10-23T18:33:12.626Z,100502.34
2022-10-23T18:34:44.804Z,100501.47
2022-10-23T18:36:18.925Z,100503.25
2022-10-23T18:37:50.901Z,100497.34
2022-10-23T18:39:23.593Z,100501.88
2022-10-23T18:40:55.661Z,100495.19
2022-10-23T18:42:27.489Z,100499.69
2022-10-23T18:43:59.592Z,100503.25
2022-10-23T18:45:31.778Z,100507.63
2022-10-23T18:47:03.679Z,100512.03
2022-10-23T18:48:35.902Z,100512.91
2022-10-23T18:50:08.066Z,100507.72
2022-10-23T18:51:40.217Z,100511.22
2022-10-23T18:53:12.307Z,100515.56
2022-10-23T18:54:44.397Z,100515.56
2022-10-23T18:56:16.798Z,100515.59
2022-10-23T18:57:48.906Z,100510.47
2022-10-23T18:59:21.285Z,100514.84
2022-10-23T19:00:53.288Z,100507.91
2022-10-23T19:02:25.815Z,100512.25
2022-10-23T19:03:59.661Z,100513.09